Shin-oh Maru — JG5594 — position and weather

sailwx.info

Track history (hours):
 
Tides and Currents Weather Stations Pressure Air Temp Water Temp Dewpoint Dewpoint Depression Visibility Wind Speed Wind Dir Waves Ship Positions

Shin-oh Maru

Last reported at 2015-Aug-29 22:16 UTC. Time now 2015-Aug-30 09:54 UTC.
Position N 36°07' E 140°57'.

Length 161 m; draft 7 m.

Type: Ship (hazmat cat A). MMSI: 431100859.

Date/timePositionNaut miles runAvg speedWind from/ knotsBaromVisibWave heightAir tempDewpointWater temp
2015-Aug-29 22:16N 36°07' E 140°57'3617.8
2015-Aug-29 20:15N 35°31' E 140°53'1420.2
2015-Aug-29 19:32N 35°19' E 140°42'1919.8
2015-Aug-29 18:33N 35°05' E 140°27'1919.1
2015-Aug-29 17:33N 34°54' E 140°07'1716.9
2015-Aug-29 16:32N 34°52' E 139°46'1919.8
2015-Aug-29 15:33N 35°12' E 139°46'1313.3
2015-Aug-29 14:33N 35°25' E 139°43'1212.4
2015-Aug-29 13:33N 35°37' E 139°46'1 0.5
2015-Aug-29 12:33N 35°38' E 139°46'0 0.0
2015-Aug-29 11:33N 35°38' E 139°46'0 0.0
2015-Aug-29 10:33N 35°38' E 139°46'0 0.0
2015-Aug-29 09:33N 35°38' E 139°46'0 0.2
2015-Aug-29 08:33N 35°38' E 139°46'1111.3
2015-Aug-29 07:33N 35°27' E 139°49'1111.1
2015-Aug-29 06:33N 35°16' E 139°47'1616.2
2015-Aug-29 05:33N 34°60' E 139°44'1413.6
2015-Aug-29 04:32N 34°50' E 139°56'1918.9
2015-Aug-29 03:32N 34°59' E 140°16'1817.6
2015-Aug-29 02:32N 35°10' E 140°33'1818.0
2015-Aug-29 01:32N 35°25' E 140°46'  
2015-Aug-26 20:07N 36°04' E 140°56'1617.3
2015-Aug-26 19:12N 35°49' E 140°58'1117.0
2015-Aug-26 18:33N 35°38' E 140°58'1817.8
2015-Aug-26 17:33N 35°24' E 140°44'1818.0
2015-Aug-26 16:33N 35°09' E 140°31'1818.1
2015-Aug-26 15:33N 34°58' E 140°14'1916.1
2015-Aug-26 14:21N 34°50' E 139°52'1315.9
2015-Aug-26 13:33N 34°60' E 139°42'1716.7
2015-Aug-26 12:33N 35°16' E 139°45'1312.6
2015-Aug-26 11:34N 35°28' E 139°49'5 4.1
2015-Aug-26 10:14N 35°33' E 139°53'0 0.0
2015-Aug-26 09:29N 35°33' E 139°53'0 0.0
2015-Aug-26 08:32N 35°33' E 139°53'0 0.0
2015-Aug-26 07:26N 35°33' E 139°53'0 0.1
2015-Aug-26 06:32N 35°33' E 139°53'0 0.0
2015-Aug-26 05:29N 35°33' E 139°53'0 0.0
2015-Aug-26 04:32N 35°33' E 139°53'0 0.0
2015-Aug-26 03:23N 35°33' E 139°53'0 0.1
2015-Aug-26 02:32N 35°33' E 139°53'0 0.0
2015-Aug-26 01:32N 35°33' E 139°53'0 0.0
2015-Aug-26 00:32N 35°33' E 139°53'0 0.0
2015-Aug-25 23:32N 35°33' E 139°53'0 0.0
2015-Aug-25 22:32N 35°33' E 139°53'0 0.0
2015-Aug-25 21:32N 35°33' E 139°53'0 0.0
2015-Aug-25 20:32N 35°33' E 139°53'0 0.0
2015-Aug-25 19:26N 35°33' E 139°53'0 0.0
2015-Aug-25 18:26N 35°33' E 139°53'0 0.0
2015-Aug-25 17:32N 35°33' E 139°53'0 0.0
2015-Aug-25 16:32N 35°33' E 139°53'0 0.0
2015-Aug-25 15:32N 35°33' E 139°53'0 0.1
2015-Aug-25 14:34N 35°33' E 139°53'6 5.8
2015-Aug-25 13:33N 35°36' E 139°47'2 2.4
2015-Aug-25 12:32N 35°38' E 139°46'0 0.0
2015-Aug-25 11:32N 35°38' E 139°46'0 0.0
2015-Aug-25 10:16N 35°38' E 139°46'0 0.0
2015-Aug-25 09:31N 35°38' E 139°46'0 0.0
2015-Aug-25 08:31N 35°38' E 139°46'3 3.1
2015-Aug-25 07:33N 35°35' E 139°48'1312.9
2015-Aug-25 06:33N 35°22' E 139°45'1211.7
2015-Aug-25 05:33N 35°11' E 139°47'1817.5
2015-Aug-25 04:33N 34°53' E 139°46'1818.5
2015-Aug-25 03:33N 34°56' E 140°08'2117.1
2015-Aug-25 02:18N 35°08' E 140°30'2017.3
2015-Aug-25 01:09N 35°25' E 140°44'86 1.8
2015-Aug-23 01:21N 36°48' E 141°10'1917.6
2015-Aug-23 00:17N 36°30' E 141°04'1418.3
2015-Aug-22 23:33N 36°16' E 141°03'2218.3
2015-Aug-22 22:21N 35°54' E 141°01'1518.3
2015-Aug-22 21:30N 35°39' E 140°58'1718.1
2015-Aug-22 20:33N 35°25' E 140°47'2219.4
2015-Aug-22 19:25N 35°08' E 140°30'1820.6
2015-Aug-22 18:33N 34°57' E 140°13'2020.3
2015-Aug-22 17:33N 34°46' E 139°52'1818.2
2015-Aug-22 16:33N 35°03' E 139°42'1515.3
2015-Aug-22 15:33N 35°18' E 139°44'1515.1
2015-Aug-22 14:33N 35°32' E 139°51'7 7.0
2015-Aug-22 13:33N 35°38' E 139°46'0 0.0
2015-Aug-22 12:19N 35°38' E 139°46'0 0.0
2015-Aug-22 11:28N 35°38' E 139°46'0 0.0
2015-Aug-22 10:28N 35°38' E 139°46'0 0.0
2015-Aug-22 09:28N 35°38' E 139°46'0 0.0
2015-Aug-22 08:33N 35°38' E 139°46'9 9.1
2015-Aug-22 07:34N 35°30' E 139°52'1414.2
2015-Aug-22 06:33N 35°18' E 139°45'1615.7
2015-Aug-22 05:33N 35°02' E 139°45'1414.2
2015-Aug-22 04:33N 34°52' E 139°57'1818.6
2015-Aug-22 03:33N 35°01' E 140°17'1717.1
2015-Aug-22 02:33N 35°11' E 140°34'1817.6
2015-Aug-22 01:33N 35°26' E 140°46'1918.7
2015-Aug-22 00:31N 35°42' E 140°58'3718.1
2015-Aug-21 22:29N 36°18' E 141°11'2418.6
2015-Aug-21 21:13N 36°40' E 141°18'21 0.4
2015-Aug-19 23:18N 36°20' E 141°14'  
Track history (hours):
 
Tides and Currents Weather Stations Pressure Air Temp Water Temp Dewpoint Dewpoint Depression Visibility Wind Speed Wind Dir Waves Ship Positions

Shin-oh Maru

Last reported at 2015-Aug-29 22:16 UTC. Time now 2015-Aug-30 09:54 UTC.
Position N 36°07' E 140°57'.

Length 161 m; draft 7 m.

Type: Ship (hazmat cat A). MMSI: 431100859.

Date/timePositionNaut miles runAvg speedWind from/ knotsBaromVisibWave heightAir tempDewpointWater temp
2015-Aug-29 22:16N 36°07' E 140°57'3617.8
2015-Aug-29 20:15N 35°31' E 140°53'1420.2
2015-Aug-29 19:32N 35°19' E 140°42'1919.8
2015-Aug-29 18:33N 35°05' E 140°27'1919.1
2015-Aug-29 17:33N 34°54' E 140°07'1716.9
2015-Aug-29 16:32N 34°52' E 139°46'1919.8
2015-Aug-29 15:33N 35°12' E 139°46'1313.3
2015-Aug-29 14:33N 35°25' E 139°43'1212.4
2015-Aug-29 13:33N 35°37' E 139°46'1 0.5
2015-Aug-29 12:33N 35°38' E 139°46'0 0.0
2015-Aug-29 11:33N 35°38' E 139°46'0 0.0
2015-Aug-29 10:33N 35°38' E 139°46'0 0.0
2015-Aug-29 09:33N 35°38' E 139°46'0 0.2
2015-Aug-29 08:33N 35°38' E 139°46'1111.3
2015-Aug-29 07:33N 35°27' E 139°49'1111.1
2015-Aug-29 06:33N 35°16' E 139°47'1616.2
2015-Aug-29 05:33N 34°60' E 139°44'1413.6
2015-Aug-29 04:32N 34°50' E 139°56'1918.9
2015-Aug-29 03:32N 34°59' E 140°16'1817.6
2015-Aug-29 02:32N 35°10' E 140°33'1818.0
2015-Aug-29 01:32N 35°25' E 140°46'  
2015-Aug-26 20:07N 36°04' E 140°56'1617.3
2015-Aug-26 19:12N 35°49' E 140°58'1117.0
2015-Aug-26 18:33N 35°38' E 140°58'1817.8
2015-Aug-26 17:33N 35°24' E 140°44'1818.0
2015-Aug-26 16:33N 35°09' E 140°31'1818.1
2015-Aug-26 15:33N 34°58' E 140°14'1916.1
2015-Aug-26 14:21N 34°50' E 139°52'1315.9
2015-Aug-26 13:33N 34°60' E 139°42'1716.7
2015-Aug-26 12:33N 35°16' E 139°45'1312.6
2015-Aug-26 11:34N 35°28' E 139°49'5 4.1
2015-Aug-26 10:14N 35°33' E 139°53'0 0.0
2015-Aug-26 09:29N 35°33' E 139°53'0 0.0
2015-Aug-26 08:32N 35°33' E 139°53'0 0.0
2015-Aug-26 07:26N 35°33' E 139°53'0 0.1
2015-Aug-26 06:32N 35°33' E 139°53'0 0.0
2015-Aug-26 05:29N 35°33' E 139°53'0 0.0
2015-Aug-26 04:32N 35°33' E 139°53'0 0.0
2015-Aug-26 03:23N 35°33' E 139°53'0 0.1
2015-Aug-26 02:32N 35°33' E 139°53'0 0.0
2015-Aug-26 01:32N 35°33' E 139°53'0 0.0
2015-Aug-26 00:32N 35°33' E 139°53'0 0.0
2015-Aug-25 23:32N 35°33' E 139°53'0 0.0
2015-Aug-25 22:32N 35°33' E 139°53'0 0.0
2015-Aug-25 21:32N 35°33' E 139°53'0 0.0
2015-Aug-25 20:32N 35°33' E 139°53'0 0.0
2015-Aug-25 19:26N 35°33' E 139°53'0 0.0
2015-Aug-25 18:26N 35°33' E 139°53'0 0.0
2015-Aug-25 17:32N 35°33' E 139°53'0 0.0
2015-Aug-25 16:32N 35°33' E 139°53'0 0.0
2015-Aug-25 15:32N 35°33' E 139°53'0 0.1
2015-Aug-25 14:34N 35°33' E 139°53'6 5.8
2015-Aug-25 13:33N 35°36' E 139°47'2 2.4
2015-Aug-25 12:32N 35°38' E 139°46'0 0.0
2015-Aug-25 11:32N 35°38' E 139°46'0 0.0
2015-Aug-25 10:16N 35°38' E 139°46'0 0.0
2015-Aug-25 09:31N 35°38' E 139°46'0 0.0
2015-Aug-25 08:31N 35°38' E 139°46'3 3.1
2015-Aug-25 07:33N 35°35' E 139°48'1312.9
2015-Aug-25 06:33N 35°22' E 139°45'1211.7
2015-Aug-25 05:33N 35°11' E 139°47'1817.5
2015-Aug-25 04:33N 34°53' E 139°46'1818.5
2015-Aug-25 03:33N 34°56' E 140°08'2117.1
2015-Aug-25 02:18N 35°08' E 140°30'2017.3
2015-Aug-25 01:09N 35°25' E 140°44'86 1.8
2015-Aug-23 01:21N 36°48' E 141°10'1917.6
2015-Aug-23 00:17N 36°30' E 141°04'1418.3
2015-Aug-22 23:33N 36°16' E 141°03'2218.3
2015-Aug-22 22:21N 35°54' E 141°01'1518.3
2015-Aug-22 21:30N 35°39' E 140°58'1718.1
2015-Aug-22 20:33N 35°25' E 140°47'2219.4
2015-Aug-22 19:25N 35°08' E 140°30'1820.6
2015-Aug-22 18:33N 34°57' E 140°13'2020.3
2015-Aug-22 17:33N 34°46' E 139°52'1818.2
2015-Aug-22 16:33N 35°03' E 139°42'1515.3
2015-Aug-22 15:33N 35°18' E 139°44'1515.1
2015-Aug-22 14:33N 35°32' E 139°51'7 7.0
2015-Aug-22 13:33N 35°38' E 139°46'0 0.0
2015-Aug-22 12:19N 35°38' E 139°46'0 0.0
2015-Aug-22 11:28N 35°38' E 139°46'0 0.0
2015-Aug-22 10:28N 35°38' E 139°46'0 0.0
2015-Aug-22 09:28N 35°38' E 139°46'0 0.0
2015-Aug-22 08:33N 35°38' E 139°46'9 9.1
2015-Aug-22 07:34N 35°30' E 139°52'1414.2
2015-Aug-22 06:33N 35°18' E 139°45'1615.7
2015-Aug-22 05:33N 35°02' E 139°45'1414.2
2015-Aug-22 04:33N 34°52' E 139°57'1818.6
2015-Aug-22 03:33N 35°01' E 140°17'1717.1
2015-Aug-22 02:33N 35°11' E 140°34'1817.6
2015-Aug-22 01:33N 35°26' E 140°46'1918.7
2015-Aug-22 00:31N 35°42' E 140°58'3718.1
2015-Aug-21 22:29N 36°18' E 141°11'2418.6
2015-Aug-21 21:13N 36°40' E 141°18'21 0.4
2015-Aug-19 23:18N 36°20' E 141°14'  

Dump ship's entire track history